createdAt,value
2018-01-23T00:00:14.317Z,53.17
2018-01-23T00:02:41.872Z,30.47
2018-01-23T00:05:09.454Z,34.60
2018-01-23T00:07:37.132Z,30.57
2018-01-23T00:10:04.673Z,27.60
2018-01-23T00:12:32.548Z,26.33
2018-01-23T00:15:00.098Z,32.90
2018-01-23T00:17:27.649Z,28.53
2018-01-23T00:21:39.095Z,27.13
2018-01-23T00:24:06.677Z,50.53
2018-01-23T00:26:34.251Z,39.40
2018-01-23T00:29:01.801Z,22.40
2018-01-23T00:31:29.330Z,30.03
2018-01-23T00:33:56.899Z,23.50
2018-01-23T00:36:24.411Z,36.33
2018-01-23T00:38:52.075Z,32.33
2018-01-23T00:41:19.598Z,32.43
2018-01-23T00:43:47.468Z,22.40
2018-01-23T00:46:15.012Z,34.27
2018-01-23T00:48:42.534Z,31.20
2018-01-23T00:51:10.090Z,39.70
2018-01-23T00:53:37.632Z,31.13
2018-01-23T00:56:05.192Z,35.57
2018-01-23T00:58:32.754Z,39.17
2018-01-23T01:01:00.275Z,31.13
2018-01-23T01:03:27.811Z,27.13
2018-01-23T01:05:55.388Z,29.83
2018-01-23T01:08:22.972Z,46.50
2018-01-23T01:10:50.625Z,32.80
2018-01-23T01:13:18.151Z,42.07
2018-01-23T01:15:45.729Z,18.27
2018-01-23T01:18:13.267Z,40.17
2018-01-23T01:20:40.816Z,36.10
2018-01-23T01:23:08.368Z,36.43
2018-01-23T01:25:35.936Z,37.37
2018-01-23T01:28:03.504Z,41.17
2018-01-23T01:30:31.064Z,42.00
2018-01-23T01:32:58.649Z,47.27
2018-01-23T01:35:26.206Z,37.63
2018-01-23T01:37:53.825Z,34.13
2018-01-23T01:40:21.431Z,28.40
2018-01-23T01:42:49.000Z,33.73
2018-01-23T01:45:16.525Z,51.43
2018-01-23T01:47:44.117Z,23.03
2018-01-23T01:50:11.673Z,25.53
2018-01-23T01:52:39.225Z,31.50
2018-01-23T01:55:06.772Z,31.50
2018-01-23T01:57:34.425Z,35.07
2018-01-23T02:00:01.979Z,36.30
2018-01-23T02:02:29.564Z,22.97
2018-01-23T02:04:57.116Z,31.10
2018-01-23T02:07:24.698Z,26.80
2018-01-23T02:09:52.253Z,25.33
2018-01-23T02:12:19.933Z,35.90
2018-01-23T02:14:47.456Z,28.53
2018-01-23T02:17:15.001Z,29.27
2018-01-23T02:19:42.577Z,26.37
2018-01-23T02:22:10.114Z,25.80
2018-01-23T02:24:37.697Z,32.10
2018-01-23T02:27:05.266Z,32.87
2018-01-23T02:29:32.812Z,24.73
2018-01-23T02:32:00.338Z,30.10
2018-01-23T02:34:28.013Z,32.83
2018-01-23T02:36:55.561Z,25.77
2018-01-23T02:39:23.165Z,37.33
2018-01-23T02:41:50.764Z,34.17
2018-01-23T02:44:18.314Z,51.47
2018-01-23T02:46:45.919Z,35.47
2018-01-23T02:49:13.442Z,36.70
2018-01-23T02:51:40.990Z,22.33
2018-01-23T02:54:08.564Z,29.60
2018-01-23T02:56:36.080Z,27.50
2018-01-23T02:59:03.629Z,24.17
2018-01-23T03:01:31.526Z,36.43
2018-01-23T03:03:59.081Z,40.10
2018-01-23T03:06:26.630Z,34.70
2018-01-23T03:08:54.158Z,31.63
2018-01-23T03:11:21.699Z,35.43
2018-01-23T03:13:49.212Z,31.67
2018-01-23T03:16:16.755Z,44.07
2018-01-23T03:18:44.290Z,42.37
2018-01-23T03:21:11.833Z,46.33
2018-01-23T03:23:39.398Z,23.50
2018-01-23T03:26:06.968Z,30.07
2018-01-23T03:28:34.626Z,30.43
2018-01-23T03:31:02.378Z,48.90
2018-01-23T03:33:29.954Z,35.77
2018-01-23T03:35:57.660Z,31.93
2018-01-23T03:38:25.255Z,26.97
2018-01-23T03:40:52.822Z,44.83
2018-01-23T03:43:20.694Z,32.23
2018-01-23T03:45:48.413Z,32.23
2018-01-23T03:48:15.978Z,26.60
2018-01-23T03:50:43.527Z,31.73
2018-01-23T03:53:11.276Z,33.87
2018-01-23T03:55:38.856Z,27.43
2018-01-23T03:58:06.593Z,29.67
2018-01-23T04:00:34.933Z,40.77
2018-01-23T04:03:02.637Z,35.77
2018-01-23T04:05:30.192Z,38.87
2018-01-23T04:07:57.708Z,32.73
2018-01-23T04:10:25.318Z,26.97
2018-01-23T04:12:52.876Z,39.47
2018-01-23T04:15:20.560Z,35.30
2018-01-23T04:17:48.145Z,31.87
2018-01-23T04:20:15.710Z,35.17
2018-01-23T04:22:43.272Z,22.53
2018-01-23T04:25:10.783Z,30.37
2018-01-23T04:27:38.341Z,37.60
2018-01-23T04:30:05.966Z,33.10
2018-01-23T04:32:33.521Z,33.33
2018-01-23T04:35:01.073Z,43.73
2018-01-23T04:37:28.698Z,42.10
2018-01-23T04:39:56.270Z,35.87
2018-01-23T04:42:23.851Z,28.73
2018-01-23T04:44:51.407Z,36.10
2018-01-23T04:47:18.990Z,26.43
2018-01-23T04:49:46.573Z,41.47
2018-01-23T04:52:14.089Z,24.80
2018-01-23T04:54:41.668Z,36.67
2018-01-23T04:57:09.221Z,41.73
2018-01-23T04:59:36.773Z,43.57
2018-01-23T05:02:04.501Z,26.80
2018-01-23T05:04:32.346Z,27.73
2018-01-23T05:06:59.900Z,24.20
2018-01-23T05:09:27.458Z,22.57
2018-01-23T05:11:55.456Z,21.87
2018-01-23T05:14:23.008Z,30.07
2018-01-23T05:16:50.536Z,23.10
2018-01-23T05:19:18.111Z,30.30
2018-01-23T05:21:45.653Z,31.10
2018-01-23T05:24:13.200Z,27.27
2018-01-23T05:26:40.790Z,32.67
2018-01-23T05:29:08.347Z,25.73
2018-01-23T05:31:35.933Z,30.80
2018-01-23T05:34:03.447Z,25.40
2018-01-23T05:36:31.053Z,30.93
2018-01-23T05:38:58.636Z,27.03
2018-01-23T05:41:26.464Z,27.73
2018-01-23T05:43:53.976Z,24.53
2018-01-23T05:46:21.527Z,24.07
2018-01-23T05:48:49.072Z,14.30
2018-01-23T05:51:16.575Z,22.03
2018-01-23T05:53:44.173Z,17.43
2018-01-23T05:56:11.881Z,18.97
2018-01-23T05:58:39.461Z,30.13
2018-01-23T06:01:07.090Z,20.93
2018-01-23T06:03:34.603Z,22.03
2018-01-23T06:06:02.155Z,28.03
2018-01-23T06:08:29.698Z,28.43
2018-01-23T06:10:57.269Z,29.03
2018-01-23T06:13:24.784Z,23.07
2018-01-23T06:15:52.706Z,28.20
2018-01-23T06:18:20.268Z,30.00
2018-01-23T06:20:47.845Z,20.13
2018-01-23T06:23:15.416Z,31.60
2018-01-23T06:25:42.956Z,31.43
2018-01-23T06:28:10.930Z,31.87
2018-01-23T06:30:38.608Z,23.43
2018-01-23T06:33:06.145Z,25.57
2018-01-23T06:35:34.061Z,19.00
2018-01-23T06:38:01.626Z,37.30
2018-01-23T06:40:29.308Z,24.97
2018-01-23T06:42:57.054Z,24.23
2018-01-23T06:45:24.768Z,28.87
2018-01-23T06:47:52.747Z,27.40
2018-01-23T06:50:20.421Z,27.40
2018-01-23T06:52:47.935Z,29.43
2018-01-23T06:55:15.458Z,26.73
2018-01-23T06:57:43.031Z,25.13
2018-01-23T07:00:10.821Z,26.93
2018-01-23T07:02:38.337Z,37.60
2018-01-23T07:05:05.909Z,37.67
2018-01-23T07:07:33.453Z,27.90
2018-01-23T07:10:00.987Z,33.00
2018-01-23T07:12:28.532Z,23.37
2018-01-23T07:14:56.125Z,32.87
2018-01-23T07:17:23.653Z,37.03
2018-01-23T07:19:51.405Z,21.33
2018-01-23T07:22:18.961Z,30.33
2018-01-23T07:24:46.517Z,33.17
2018-01-23T07:27:14.280Z,26.00
2018-01-23T07:29:41.907Z,24.77
2018-01-23T07:32:09.446Z,36.80
2018-01-23T07:34:37.065Z,32.73
2018-01-23T07:37:04.794Z,32.93
2018-01-23T07:39:32.348Z,28.00
2018-01-23T07:41:59.890Z,39.20
2018-01-23T07:44:27.747Z,32.80
2018-01-23T07:46:55.340Z,36.03
2018-01-23T07:49:22.888Z,35.53
2018-01-23T07:51:50.451Z,39.10
2018-01-23T07:54:18.026Z,37.00
2018-01-23T07:56:45.591Z,46.10
2018-01-23T07:59:13.166Z,43.00
2018-01-23T08:01:40.860Z,39.40
2018-01-23T08:04:08.459Z,39.67
2018-01-23T08:06:36.004Z,39.13
2018-01-23T08:09:03.644Z,45.90
2018-01-23T08:11:31.614Z,40.80
2018-01-23T08:13:59.419Z,40.80
2018-01-23T08:16:27.117Z,33.13
2018-01-23T08:18:54.828Z,39.13
2018-01-23T08:21:22.390Z,38.87
2018-01-23T08:23:49.981Z,34.97
2018-01-23T08:26:17.575Z,38.00
2018-01-23T08:28:45.145Z,34.77
2018-01-23T08:31:12.806Z,39.90
2018-01-23T08:33:40.357Z,43.33
2018-01-23T08:36:07.881Z,22.10
2018-01-23T08:38:35.500Z,27.87
2018-01-23T08:41:03.020Z,27.93
2018-01-23T08:43:30.710Z,25.47
2018-01-23T08:45:58.322Z,36.93
2018-01-23T08:48:25.839Z,32.53
2018-01-23T08:50:53.445Z,26.73
2018-01-23T08:53:20.988Z,35.00
2018-01-23T08:55:48.534Z,30.33
2018-01-23T08:58:16.153Z,32.60
2018-01-23T09:00:43.709Z,31.53
2018-01-23T09:03:11.319Z,29.77
2018-01-23T09:05:38.926Z,29.33
2018-01-23T09:08:06.453Z,37.87
2018-01-23T09:10:34.006Z,29.80
2018-01-23T09:13:01.547Z,31.53
2018-01-23T09:15:29.094Z,33.60
2018-01-23T09:17:56.645Z,31.57
2018-01-23T09:20:24.221Z,35.57
2018-01-23T09:22:51.738Z,24.17
2018-01-23T09:25:19.318Z,43.27
2018-01-23T09:27:46.934Z,38.27
2018-01-23T09:30:14.528Z,46.63
2018-01-23T09:32:42.074Z,28.47
2018-01-23T09:35:09.624Z,30.30
2018-01-23T09:37:37.643Z,35.37
2018-01-23T09:40:05.193Z,31.20
2018-01-23T09:42:32.752Z,30.80
2018-01-23T09:45:00.294Z,31.77
2018-01-23T09:47:28.111Z,37.43
2018-01-23T09:49:55.663Z,36.57
2018-01-23T09:52:23.216Z,34.13
2018-01-23T09:54:50.791Z,32.60
2018-01-23T09:57:18.358Z,40.80
2018-01-23T09:59:45.927Z,45.73
2018-01-23T10:02:13.491Z,34.10
2018-01-23T10:04:41.116Z,31.50
2018-01-23T10:07:08.677Z,37.10
2018-01-23T10:09:36.236Z,37.57
2018-01-23T10:12:03.819Z,39.90
2018-01-23T10:14:31.553Z,41.77
2018-01-23T10:16:59.105Z,52.50
2018-01-23T10:19:26.668Z,32.57
2018-01-23T10:21:54.614Z,32.90
2018-01-23T10:24:22.151Z,31.23
2018-01-23T10:26:49.705Z,36.37
2018-01-23T10:29:17.700Z,34.30
2018-01-23T10:31:45.210Z,33.20
2018-01-23T10:34:12.719Z,40.23
2018-01-23T10:36:40.277Z,31.80
2018-01-23T10:39:07.871Z,31.40
2018-01-23T10:41:35.458Z,33.77
2018-01-23T10:44:03.026Z,40.90
2018-01-23T10:46:30.585Z,25.33
2018-01-23T10:48:58.285Z,31.47
2018-01-23T10:51:25.821Z,28.53
2018-01-23T10:53:53.362Z,32.70
2018-01-23T10:56:20.915Z,21.83
2018-01-23T10:58:48.462Z,34.80
2018-01-23T11:01:16.006Z,26.50
2018-01-23T11:03:43.857Z,35.87
2018-01-23T11:06:11.391Z,35.37
2018-01-23T11:08:38.953Z,31.63
2018-01-23T11:11:06.525Z,30.90
2018-01-23T11:13:34.088Z,27.40
2018-01-23T11:16:01.696Z,54.43
2018-01-23T11:18:29.253Z,33.13
2018-01-23T11:20:56.784Z,22.07
2018-01-23T11:23:24.356Z,33.83
2018-01-23T11:25:51.914Z,20.40
2018-01-23T11:28:19.477Z,26.50
2018-01-23T11:30:47.235Z,30.97
2018-01-23T11:33:14.759Z,30.50
2018-01-23T11:35:42.353Z,20.20
2018-01-23T11:38:09.914Z,26.73
2018-01-23T11:40:37.435Z,21.43
2018-01-23T11:43:04.975Z,16.60
2018-01-23T11:45:32.527Z,26.10
2018-01-23T11:48:00.081Z,22.73
2018-01-23T11:50:27.600Z,20.93
2018-01-23T11:52:55.130Z,21.90
2018-01-23T11:55:22.690Z,17.47
2018-01-23T11:57:50.227Z,18.50
2018-01-23T12:00:17.761Z,19.30
2018-01-23T12:02:45.585Z,28.00
2018-01-23T12:05:13.133Z,23.03
2018-01-23T12:07:40.665Z,30.00
2018-01-23T12:10:08.399Z,20.07
2018-01-23T12:12:35.946Z,20.03
2018-01-23T12:15:03.505Z,23.03
2018-01-23T12:17:31.077Z,24.20
2018-01-23T12:19:58.630Z,22.80
2018-01-23T12:22:26.182Z,20.27
2018-01-23T12:24:53.733Z,14.23
2018-01-23T12:27:21.306Z,31.67
2018-01-23T12:29:48.910Z,22.10
2018-01-23T12:32:16.660Z,15.57
2018-01-23T12:34:44.226Z,18.17
2018-01-23T12:37:11.796Z,14.83
2018-01-23T12:39:39.408Z,15.13
2018-01-23T12:42:07.112Z,16.93
2018-01-23T12:44:34.678Z,17.47
2018-01-23T12:47:02.518Z,14.10
2018-01-23T12:49:30.074Z,20.87
2018-01-23T12:51:57.634Z,18.33
2018-01-23T12:54:25.251Z,14.83
2018-01-23T12:56:52.768Z,18.70
2018-01-23T12:59:20.275Z,20.50
2018-01-23T13:01:47.826Z,15.03
2018-01-23T13:04:15.415Z,19.13
2018-01-23T13:06:42.971Z,18.07
2018-01-23T13:09:10.553Z,15.93
2018-01-23T13:11:38.079Z,13.43
2018-01-23T13:14:06.721Z,20.23
2018-01-23T13:16:34.285Z,20.67
2018-01-23T13:19:01.836Z,13.93
2018-01-23T13:21:29.379Z,17.07
2018-01-23T13:23:57.030Z,15.03
2018-01-23T13:26:24.614Z,14.80
2018-01-23T13:28:52.276Z,22.43
2018-01-23T13:31:19.889Z,17.17
2018-01-23T13:33:47.446Z,14.93
2018-01-23T13:36:14.964Z,16.23
2018-01-23T13:38:42.550Z,11.80
2018-01-23T13:41:10.147Z,14.50
2018-01-23T13:43:37.708Z,13.10
2018-01-23T13:46:05.594Z,22.90
2018-01-23T13:48:33.103Z,19.27
2018-01-23T13:51:00.623Z,18.83
2018-01-23T13:53:28.172Z,16.20
2018-01-23T13:55:55.780Z,22.90
2018-01-23T13:58:23.760Z,17.40
2018-01-23T14:00:51.278Z,32.93
2018-01-23T14:03:18.830Z,10.37
2018-01-23T14:05:46.401Z,17.57
2018-01-23T14:08:13.996Z,9.60
2018-01-23T14:10:41.635Z,13.33
2018-01-23T14:13:09.178Z,19.40
2018-01-23T14:15:36.748Z,11.37
2018-01-23T14:18:04.286Z,14.07
2018-01-23T14:20:31.859Z,11.33
2018-01-23T14:22:59.370Z,18.00
2018-01-23T14:25:26.917Z,15.50
2018-01-23T14:27:54.506Z,12.70
2018-01-23T14:30:22.032Z,13.40
2018-01-23T14:32:49.597Z,15.53
2018-01-23T14:35:17.144Z,19.43
2018-01-23T14:37:44.687Z,17.97
2018-01-23T14:40:12.222Z,12.03
2018-01-23T14:42:39.833Z,21.87
2018-01-23T14:45:07.352Z,11.27
2018-01-23T14:47:34.145Z,12.17
2018-01-23T14:50:01.680Z,18.93
2018-01-23T14:52:29.456Z,15.50
2018-01-23T14:54:57.025Z,24.30
2018-01-23T14:57:25.528Z,12.23
2018-01-23T14:59:53.334Z,9.20
2018-01-23T15:02:20.949Z,13.23
2018-01-23T15:04:48.518Z,15.30
2018-01-23T15:07:16.055Z,16.60
2018-01-23T15:09:43.586Z,15.30
2018-01-23T15:12:11.120Z,9.47
2018-01-23T15:14:38.842Z,10.20
2018-01-23T15:17:06.437Z,13.90
2018-01-23T15:19:33.947Z,17.30
2018-01-23T15:22:01.504Z,9.50
2018-01-23T15:24:29.078Z,11.67
2018-01-23T15:26:56.611Z,15.77
2018-01-23T15:29:24.146Z,10.30
2018-01-23T15:31:51.667Z,13.77
2018-01-23T15:34:19.274Z,14.77
2018-01-23T15:36:46.829Z,15.83
2018-01-23T15:39:14.378Z,10.70
2018-01-23T15:41:41.924Z,11.60
2018-01-23T15:44:09.468Z,15.37
2018-01-23T15:46:37.045Z,15.00
2018-01-23T15:49:04.597Z,13.93
2018-01-23T15:51:32.153Z,19.77
2018-01-23T15:53:59.684Z,18.53
2018-01-23T15:56:27.267Z,17.63
2018-01-23T15:58:54.962Z,17.83
2018-01-23T16:01:22.514Z,14.83
2018-01-23T16:03:50.789Z,17.83
2018-01-23T16:06:18.349Z,20.07
2018-01-23T16:08:45.928Z,15.67
2018-01-23T16:11:13.464Z,17.20
2018-01-23T16:13:40.990Z,14.57
2018-01-23T16:16:08.571Z,18.63
2018-01-23T16:18:36.100Z,32.17
2018-01-23T16:21:03.636Z,16.07
2018-01-23T16:23:31.171Z,19.83
2018-01-23T16:25:58.747Z,22.90
2018-01-23T16:28:26.303Z,20.80
2018-01-23T16:30:53.901Z,26.27
2018-01-23T16:33:21.495Z,31.30
2018-01-23T16:35:49.057Z,24.63
2018-01-23T16:38:16.641Z,21.40
2018-01-23T16:40:44.410Z,44.17
2018-01-23T16:43:11.981Z,31.83
2018-01-23T16:45:39.542Z,16.20
2018-01-23T16:48:07.089Z,14.90
2018-01-23T16:50:34.629Z,9.90
2018-01-23T16:53:02.533Z,14.70
2018-01-23T16:55:30.084Z,12.90
2018-01-23T16:57:57.634Z,19.73
2018-01-23T17:00:25.220Z,18.47
2018-01-23T17:02:52.726Z,19.53
2018-01-23T17:05:20.310Z,15.07
2018-01-23T17:07:47.891Z,15.30
2018-01-23T17:10:15.465Z,18.23
2018-01-23T17:12:43.022Z,18.90
2018-01-23T17:15:10.609Z,17.37
2018-01-23T17:17:38.130Z,14.63
2018-01-23T17:20:05.743Z,20.00
2018-01-23T17:22:33.293Z,9.20
2018-01-23T17:25:00.831Z,30.63
2018-01-23T17:27:28.380Z,17.00
2018-01-23T17:29:55.961Z,13.67
2018-01-23T17:32:23.572Z,9.00
2018-01-23T17:34:51.147Z,19.50
2018-01-23T17:37:18.678Z,13.40
2018-01-23T17:39:46.229Z,12.10
2018-01-23T17:42:13.796Z,16.63
2018-01-23T17:44:41.319Z,13.97
2018-01-23T17:47:08.870Z,15.80
2018-01-23T17:49:36.422Z,14.60
2018-01-23T17:52:03.977Z,16.03
2018-01-23T17:54:31.561Z,10.80
2018-01-23T17:56:59.322Z,13.10
2018-01-23T17:59:26.950Z,12.73
2018-01-23T18:01:54.733Z,9.20
2018-01-23T18:04:22.311Z,19.43
2018-01-23T18:06:49.867Z,12.63
2018-01-23T18:09:17.458Z,12.50
2018-01-23T18:11:45.126Z,11.73
2018-01-23T18:14:12.702Z,10.80
2018-01-23T18:16:40.215Z,11.03
2018-01-23T18:19:07.761Z,12.10
2018-01-23T18:21:35.349Z,9.13
2018-01-23T18:24:02.915Z,11.97
2018-01-23T18:26:30.462Z,14.07
2018-01-23T18:28:57.974Z,15.40
2018-01-23T18:31:25.537Z,10.93
2018-01-23T18:33:53.081Z,11.60
2018-01-23T18:36:21.017Z,12.27
2018-01-23T18:38:48.586Z,16.47
2018-01-23T18:41:16.123Z,12.60
2018-01-23T18:43:43.760Z,15.83
2018-01-23T18:46:11.558Z,18.33
2018-01-23T18:48:39.073Z,18.43
2018-01-23T18:51:06.615Z,22.80
2018-01-23T18:53:34.140Z,17.20
2018-01-23T18:56:01.723Z,23.03
2018-01-23T18:58:29.281Z,22.00
2018-01-23T19:00:56.832Z,26.87
2018-01-23T19:03:24.352Z,22.60
2018-01-23T19:05:51.898Z,17.20
2018-01-23T19:08:19.476Z,18.63
2018-01-23T19:10:46.995Z,20.50
2018-01-23T19:13:15.637Z,22.70
2018-01-23T19:15:43.211Z,20.07
2018-01-23T19:18:10.761Z,17.73
2018-01-23T19:20:38.369Z,17.90
2018-01-23T19:23:05.973Z,25.17
2018-01-23T19:25:33.894Z,22.53
2018-01-23T19:28:01.814Z,18.77
2018-01-23T19:30:29.402Z,45.73
2018-01-23T19:32:56.994Z,29.67
2018-01-23T19:35:24.626Z,27.83
2018-01-23T19:37:52.266Z,37.27
2018-01-23T19:40:19.891Z,43.57
2018-01-23T19:42:47.459Z,31.73
2018-01-23T19:45:15.034Z,23.93
2018-01-23T19:47:42.979Z,37.50
2018-01-23T19:50:10.535Z,20.37
2018-01-23T19:52:38.081Z,24.47
2018-01-23T19:55:05.673Z,29.80
2018-01-23T19:57:33.663Z,26.50
2018-01-23T20:00:01.303Z,26.23
2018-01-23T20:02:28.837Z,27.13
2018-01-23T20:04:56.687Z,32.53
2018-01-23T20:07:24.246Z,33.03
2018-01-23T20:09:51.771Z,22.60
2018-01-23T20:12:19.366Z,33.03
2018-01-23T20:14:46.990Z,31.77
2018-01-23T20:17:14.539Z,25.73
2018-01-23T20:19:42.104Z,29.47
2018-01-23T20:22:09.701Z,25.70
2018-01-23T20:24:37.275Z,30.17
2018-01-23T20:27:04.892Z,32.30
2018-01-23T20:29:32.595Z,30.93
2018-01-23T20:32:00.149Z,34.63
2018-01-23T20:34:27.667Z,33.60
2018-01-23T20:36:55.279Z,32.50
2018-01-23T20:39:22.834Z,25.23
2018-01-23T20:41:50.384Z,35.40
2018-01-23T20:44:18.981Z,35.57
2018-01-23T20:46:46.873Z,23.07
2018-01-23T20:49:14.430Z,27.57
2018-01-23T20:51:41.965Z,38.30
2018-01-23T20:54:09.588Z,28.23
2018-01-23T20:56:37.114Z,34.80
2018-01-23T20:59:04.636Z,39.47
2018-01-23T21:01:32.213Z,30.00
2018-01-23T21:03:59.767Z,34.20
2018-01-23T21:06:27.297Z,31.20
2018-01-23T21:08:54.895Z,43.53
2018-01-23T21:11:22.461Z,33.77
2018-01-23T21:13:50.209Z,35.40
2018-01-23T21:16:17.736Z,40.70
2018-01-23T21:18:45.334Z,32.77
2018-01-23T21:21:12.901Z,35.47
2018-01-23T21:23:40.444Z,46.43
2018-01-23T21:26:08.055Z,45.87
2018-01-23T21:28:35.616Z,51.00
2018-01-23T21:31:03.169Z,54.90
2018-01-23T21:33:31.069Z,44.77
2018-01-23T21:35:58.590Z,36.53
2018-01-23T21:38:26.153Z,46.17
2018-01-23T21:40:53.695Z,43.23
2018-01-23T21:43:21.220Z,47.23
2018-01-23T21:45:48.797Z,46.53
2018-01-23T21:48:16.347Z,50.53
2018-01-23T21:50:43.938Z,45.60
2018-01-23T21:53:11.497Z,51.07
2018-01-23T21:55:39.053Z,38.27
2018-01-23T21:58:06.765Z,45.57
2018-01-23T22:00:34.349Z,46.57
2018-01-23T22:03:02.119Z,46.33
2018-01-23T22:05:29.654Z,46.67
2018-01-23T22:07:57.203Z,44.00
2018-01-23T22:10:25.016Z,47.83
2018-01-23T22:12:52.535Z,40.97
2018-01-23T22:15:20.061Z,43.33
2018-01-23T22:17:47.675Z,41.03
2018-01-23T22:20:15.340Z,46.83
2018-01-23T22:22:43.215Z,52.00
2018-01-23T22:25:10.744Z,39.10
2018-01-23T22:27:38.262Z,43.27
2018-01-23T22:30:05.849Z,38.10
2018-01-23T22:32:33.430Z,46.83
2018-01-23T22:35:01.181Z,46.10
2018-01-23T22:37:28.706Z,39.17
2018-01-23T22:39:56.290Z,48.83
2018-01-23T22:42:23.849Z,48.83
2018-01-23T22:44:51.470Z,51.20
2018-01-23T22:47:19.028Z,49.53
2018-01-23T22:49:46.720Z,43.23
2018-01-23T22:52:14.309Z,42.00
2018-01-23T22:54:41.819Z,44.33
2018-01-23T22:57:09.355Z,33.97
2018-01-23T22:59:36.867Z,37.40
2018-01-23T23:02:04.697Z,31.97
2018-01-23T23:04:33.202Z,31.10
2018-01-23T23:07:00.855Z,36.87
2018-01-23T23:09:28.436Z,35.30
2018-01-23T23:11:56.025Z,37.07
2018-01-23T23:14:23.614Z,35.97
2018-01-23T23:16:51.148Z,38.27
2018-01-23T23:19:18.726Z,39.57
2018-01-23T23:21:46.248Z,34.03
2018-01-23T23:24:13.776Z,37.17
2018-01-23T23:26:41.449Z,32.33
2018-01-23T23:29:09.004Z,36.80
2018-01-23T23:31:36.693Z,38.33
2018-01-23T23:34:04.242Z,36.37
2018-01-23T23:36:34.924Z,31.07
2018-01-23T23:39:02.513Z,38.03
2018-01-23T23:41:30.031Z,39.97
2018-01-23T23:43:57.623Z,38.90
2018-01-23T23:46:25.181Z,34.77
2018-01-23T23:48:52.754Z,40.77
2018-01-23T23:51:20.269Z,40.43
2018-01-23T23:53:47.837Z,42.37
2018-01-23T23:56:15.604Z,35.70
2018-01-23T23:58:43.161Z,40.57
